Time;durP1;ratioP1;P1;durP2;ratioP2;P2;SDS_P1;SDS_P2;PMS_P1;PMS_P2;Temp;Humidity;BMP_temperature;BMP_pressure;BME280_temperature;BME280_humidity;BME280_pressure;Samples;Min_cycle;Max_cycle;Signal;HPM_P1;HPM_P2
2022/05/29 00:01:49;;;;;;;4.38;2.60;;;;;;;;;;5085739;28;20040;-66
2022/05/29 00:04:14;;;;;;;5.47;2.63;;;;;;;;;;5089926;28;20031;-66
2022/05/29 00:06:42;;;;;;;5.63;2.28;;;;;;;;;;5082013;28;20165;-66
2022/05/29 00:09:11;;;;;;;5.28;2.75;;;;;;;;;;5079589;28;20020;-66
2022/05/29 00:11:37;;;;;;;4.50;2.33;;;;;;;;;;5075457;28;20094;-66
2022/05/29 00:14:02;;;;;;;6.85;2.58;;;;;;;;;;5085245;28;20068;-65
2022/05/29 00:16:28;;;;;;;5.32;2.58;;;;;;;;;;5079364;28;20121;-66
2022/05/29 00:18:54;;;;;;;7.32;2.60;;;;;;;;;;5075738;28;20031;-66
2022/05/29 00:21:20;;;;;;;4.78;2.40;;;;;;;;;;5081222;28;20040;-66
2022/05/29 00:23:49;;;;;;;4.20;2.20;;;;;;;;;;5077724;28;20804;-66
2022/05/29 00:26:16;;;;;;;8.15;2.40;;;;;;;;;;5085187;28;20520;-66
2022/05/29 00:28:42;;;;;;;4.88;2.15;;;;;;;;;;5081016;28;20114;-66
2022/05/29 00:31:07;;;;;;;6.35;2.45;;;;;;;;;;5083707;28;20040;-66
2022/05/29 00:33:33;;;;;;;6.30;2.95;;;;;;;;;;5084910;28;20059;-66
2022/05/29 00:35:58;;;;;;;6.43;2.42;;;;;;;;;;5083175;28;20036;-66
2022/05/29 00:38:24;;;;;;;5.85;2.65;;;;;;;;;;5080779;28;20090;-66
2022/05/29 00:40:59;;;;;;;4.50;2.50;;;;;;;;;;5085511;28;20123;-66
2022/05/29 00:43:24;;;;;;;4.22;2.40;;;;;;;;;;5084995;28;20063;-66
2022/05/29 00:45:58;;;;;;;6.35;2.70;;;;;;;;;;5086045;28;20411;-66
2022/05/29 00:48:23;;;;;;;;;;;;;;;;;;5074528;28;20412;-66
2022/05/29 00:50:51;;;;;;;4.85;2.65;;;;;;;;;;5085881;28;20543;-66
2022/05/29 00:53:17;;;;;;;8.18;2.30;;;;;;;;;;5086328;28;20044;-66
2022/05/29 00:55:49;;;;;;;5.15;2.65;;;;;;;;;;5084804;28;20028;-66
2022/05/29 00:58:16;;;;;;;3.73;2.33;;;;;;;;;;5082730;28;20036;-66
2022/05/29 01:00:41;;;;;;;6.05;2.50;;;;;;;;;;5084555;28;20290;-66
2022/05/29 01:03:07;;;;;;;4.47;2.30;;;;;;;;;;5081625;28;20028;-66
2022/05/29 01:05:34;;;;;;;5.95;2.50;;;;;;;;;;5083717;28;20020;-66
2022/05/29 01:08:06;;;;;;;4.80;2.33;;;;;;;;;;5084204;28;20583;-66
2022/05/29 01:10:46;;;;;;;4.60;2.33;;;;;;;;;;5083603;28;20040;-66
2022/05/29 01:13:15;;;;;;;4.40;2.33;;;;;;;;;;5082572;28;20619;-66
2022/05/29 01:15:48;;;;;;;3.35;2.40;;;;;;;;;;5084461;28;20085;-66
2022/05/29 01:18:34;;;;;;;6.07;2.60;;;;;;;;;;5084371;28;20473;-66
2022/05/29 01:21:00;;;;;;;5.40;2.88;;;;;;;;;;5085363;28;20064;-66
2022/05/29 01:23:29;;;;;;;3.90;2.42;;;;;;;;;;5086836;28;20087;-66
2022/05/29 01:26:24;;;;;;;8.00;2.30;;;;;;;;;;5086522;28;20628;-66
2022/05/29 01:29:03;;;;;;;3.42;2.25;;;;;;;;;;5087654;28;20123;-66
2022/05/29 01:31:52;;;;;;;5.85;2.70;;;;;;;;;;5070950;28;20036;-66
2022/05/29 01:34:26;;;;;;;6.95;2.55;;;;;;;;;;5089695;28;20046;-66
2022/05/29 01:37:04;;;;;;;4.68;2.10;;;;;;;;;;5089406;28;20031;-66
2022/05/29 01:39:35;;;;;;;5.50;2.20;;;;;;;;;;5094777;28;20694;-66
2022/05/29 01:42:19;;;;;;;5.90;2.90;;;;;;;;;;5096682;28;20016;-66
2022/05/29 01:45:03;;;;;;;4.47;2.70;;;;;;;;;;5097415;28;20020;-66
2022/05/29 01:47:43;;;;;;;4.22;2.60;;;;;;;;;;5074017;28;20044;-66
2022/05/29 01:50:17;;;;;;;4.28;2.40;;;;;;;;;;5077093;28;20044;-66
2022/05/29 01:52:50;;;;;;;3.88;2.40;;;;;;;;;;5102338;27;20123;-66
2022/05/29 01:55:23;;;;;;;5.57;2.92;;;;;;;;;;5090303;28;20024;-66
2022/05/29 01:57:52;;;;;;;4.03;2.42;;;;;;;;;;5088094;28;20032;-66
2022/05/29 02:00:21;;;;;;;5.40;2.60;;;;;;;;;;5083258;28;22002;-66
2022/05/29 02:03:04;;;;;;;3.33;2.20;;;;;;;;;;5082936;28;20044;-66
2022/05/29 02:05:33;;;;;;;;;;;;;;;;;;5084155;28;20074;-66
2022/05/29 02:08:13;;;;;;;3.85;2.20;;;;;;;;;;5084435;28;19924;-66
2022/05/29 02:10:56;;;;;;;6.00;2.55;;;;;;;;;;5087386;28;20041;-66
2022/05/29 02:13:54;;;;;;;4.38;2.25;;;;;;;;;;5087203;28;20090;-66
2022/05/29 02:16:28;;;;;;;4.65;2.70;;;;;;;;;;5086716;28;20040;-66
2022/05/29 02:19:00;;;;;;;3.50;2.35;;;;;;;;;;5089305;28;20050;-66
2022/05/29 02:21:38;;;;;;;8.32;2.80;;;;;;;;;;5080774;28;20143;-66
2022/05/29 02:24:10;;;;;;;4.22;3.40;;;;;;;;;;5065665;28;20028;-66
2022/05/29 02:26:40;;;;;;;7.53;2.50;;;;;;;;;;5070438;28;20110;-66
2022/05/29 02:29:11;;;;;;;5.25;2.63;;;;;;;;;;5070127;28;20048;-66
2022/05/29 02:31:47;;;;;;;4.97;2.55;;;;;;;;;;5064263;28;20592;-66
2022/05/29 02:34:27;;;;;;;4.03;2.47;;;;;;;;;;5049282;28;20721;-66
2022/05/29 02:36:57;;;;;;;5.57;2.60;;;;;;;;;;5049854;28;20394;-66
2022/05/29 02:39:24;;;;;;;5.40;2.70;;;;;;;;;;5049058;28;20761;-66
2022/05/29 02:42:13;;;;;;;7.45;2.55;;;;;;;;;;5060866;28;20543;-66
2022/05/29 02:44:48;;;;;;;6.78;2.88;;;;;;;;;;5082392;28;20051;-66
2022/05/29 02:47:25;;;;;;;6.38;2.60;;;;;;;;;;5086795;28;20043;-66
2022/05/29 02:50:00;;;;;;;5.93;2.40;;;;;;;;;;5083122;28;20540;-66
2022/05/29 02:52:25;;;;;;;6.93;2.63;;;;;;;;;;5088951;28;20032;-66
2022/05/29 02:54:51;;;;;;;6.10;2.80;;;;;;;;;;5087744;28;20039;-66
2022/05/29 02:57:17;;;;;;;5.53;2.55;;;;;;;;;;5082380;28;20032;-66
2022/05/29 02:59:50;;;;;;;5.82;2.80;;;;;;;;;;5089540;28;20382;-66
2022/05/29 03:02:30;;;;;;;5.10;2.60;;;;;;;;;;5089301;28;20028;-66
2022/05/29 03:05:28;;;;;;;4.15;2.30;;;;;;;;;;5087835;28;20055;-66
2022/05/29 03:08:03;;;;;;;5.25;2.63;;;;;;;;;;5084538;28;20116;-66
2022/05/29 03:10:38;;;;;;;4.00;2.15;;;;;;;;;;5078483;28;20032;-66
2022/05/29 03:13:31;;;;;;;6.45;2.35;;;;;;;;;;5084876;28;20413;-66
2022/05/29 03:16:07;;;;;;;4.55;2.40;;;;;;;;;;5087094;28;20036;-66
2022/05/29 03:18:41;;;;;;;6.05;2.80;;;;;;;;;;5085880;28;20050;-66
2022/05/29 03:21:24;;;;;;;5.60;2.58;;;;;;;;;;5073138;28;20417;-66
2022/05/29 03:24:22;;;;;;;6.30;2.80;;;;;;;;;;5084562;28;20115;-66
2022/05/29 03:27:08;;;;;;;4.57;2.90;;;;;;;;;;5078190;28;20036;-66
2022/05/29 03:29:43;;;;;;;5.07;2.45;;;;;;;;;;5081691;28;20509;-66
2022/05/29 03:32:09;;;;;;;3.97;2.58;;;;;;;;;;5084846;28;20111;-66
2022/05/29 03:34:34;;;;;;;3.92;2.55;;;;;;;;;;5084871;28;20593;-66
2022/05/29 03:37:00;;;;;;;5.10;2.70;;;;;;;;;;5084017;28;20507;-66
2022/05/29 03:39:25;;;;;;;9.40;2.90;;;;;;;;;;5083794;28;20130;-66
2022/05/29 03:41:53;;;;;;;4.25;2.50;;;;;;;;;;5082660;28;20032;-66
2022/05/29 03:44:21;;;;;;;6.13;3.05;;;;;;;;;;5080727;28;20032;-67
2022/05/29 03:46:47;;;;;;;7.18;3.22;;;;;;;;;;5083840;28;20390;-66
2022/05/29 03:49:15;;;;;;;4.28;2.60;;;;;;;;;;5090730;28;20085;-66
2022/05/29 03:51:41;;;;;;;9.07;3.58;;;;;;;;;;5081331;28;20032;-66
2022/05/29 03:54:07;;;;;;;7.75;3.30;;;;;;;;;;5086681;28;20020;-66
2022/05/29 03:56:33;;;;;;;10.40;3.47;;;;;;;;;;5089578;28;20016;-66
2022/05/29 03:58:58;;;;;;;6.55;2.92;;;;;;;;;;5089050;28;20051;-66
2022/05/29 04:01:24;;;;;;;7.03;3.33;;;;;;;;;;5089529;28;20046;-66
2022/05/29 04:03:53;;;;;;;6.70;3.22;;;;;;;;;;5080499;28;20085;-66
2022/05/29 04:06:19;;;;;;;5.32;2.90;;;;;;;;;;5080530;28;20482;-66
2022/05/29 04:14:12;;;;;;;6.07;2.90;;;;;;;;;;5077425;28;20120;-66
2022/05/29 04:16:37;;;;;;;7.80;3.13;;;;;;;;;;5085909;28;20131;-66
2022/05/29 04:19:03;;;;;;;4.85;3.10;;;;;;;;;;5082195;28;20036;-66
2022/05/29 04:21:28;;;;;;;6.20;3.13;;;;;;;;;;5082321;28;20047;-66
2022/05/29 04:23:54;;;;;;;7.93;3.35;;;;;;;;;;5083980;28;20023;-66
2022/05/29 04:26:19;;;;;;;7.60;3.13;;;;;;;;;;5075351;28;20077;-67
2022/05/29 04:28:45;;;;;;;5.80;3.00;;;;;;;;;;5086771;28;20036;-67
2022/05/29 04:31:11;;;;;;;5.15;3.08;;;;;;;;;;5086251;28;20103;-67
2022/05/29 04:33:36;;;;;;;6.00;3.15;;;;;;;;;;5086926;28;20448;-66
2022/05/29 04:36:02;;;;;;;5.45;2.72;;;;;;;;;;5084102;28;20051;-66
2022/05/29 04:38:28;;;;;;;4.05;3.10;;;;;;;;;;5085201;28;20405;-66
2022/05/29 04:40:54;;;;;;;5.18;2.85;;;;;;;;;;5087582;28;20032;-66
2022/05/29 04:43:20;;;;;;;6.30;3.08;;;;;;;;;;5086303;28;20051;-67
2022/05/29 04:45:46;;;;;;;6.25;3.20;;;;;;;;;;5087293;28;20044;-66
2022/05/29 04:48:13;;;;;;;7.13;3.60;;;;;;;;;;5087027;28;20024;-66
2022/05/29 04:50:39;;;;;;;5.60;2.92;;;;;;;;;;5080332;28;20731;-67
2022/05/29 04:53:05;;;;;;;7.45;2.90;;;;;;;;;;5080650;28;20039;-66
2022/05/29 04:55:31;;;;;;;4.30;2.97;;;;;;;;;;5083025;28;20088;-66
2022/05/29 04:57:56;;;;;;;11.10;3.60;;;;;;;;;;5087179;28;20124;-67
2022/05/29 05:00:23;;;;;;;6.20;3.30;;;;;;;;;;5090508;28;20152;-67
2022/05/29 05:02:48;;;;;;;8.02;3.63;;;;;;;;;;5076297;28;20027;-66
2022/05/29 05:05:14;;;;;;;5.22;3.17;;;;;;;;;;5090801;28;20040;-66
2022/05/29 05:07:39;;;;;;;8.07;3.40;;;;;;;;;;5087683;28;20024;-66
2022/05/29 05:10:11;;;;;;;5.53;3.30;;;;;;;;;;5090493;28;20063;-66
2022/05/29 05:12:37;;;;;;;5.78;3.50;;;;;;;;;;5085465;28;20523;-66
2022/05/29 05:15:03;;;;;;;5.70;3.38;;;;;;;;;;5069537;28;20104;-66
2022/05/29 05:17:28;;;;;;;7.47;3.05;;;;;;;;;;5085096;28;20464;-66
2022/05/29 05:19:54;;;;;;;6.90;3.17;;;;;;;;;;5076639;28;20032;-66
2022/05/29 05:22:19;;;;;;;7.07;3.17;;;;;;;;;;5081620;28;20448;-66
2022/05/29 05:24:44;;;;;;;11.07;3.88;;;;;;;;;;5088662;28;20028;-66
2022/05/29 05:27:11;;;;;;;8.13;3.33;;;;;;;;;;5090252;28;20016;-66
2022/05/29 05:29:37;;;;;;;6.88;3.30;;;;;;;;;;5090248;28;20247;-66
2022/05/29 05:32:03;;;;;;;8.32;3.92;;;;;;;;;;5089047;28;20043;-66
2022/05/29 05:34:28;;;;;;;8.45;4.05;;;;;;;;;;5084608;28;20036;-66
2022/05/29 05:36:54;;;;;;;6.03;3.25;;;;;;;;;;5088208;28;20028;-67
2022/05/29 05:39:20;;;;;;;7.60;3.53;;;;;;;;;;5087750;28;20060;-66
2022/05/29 05:41:46;;;;;;;6.55;3.25;;;;;;;;;;5079802;28;20020;-66
2022/05/29 05:44:11;;;;;;;6.70;3.30;;;;;;;;;;5087037;28;20043;-66
2022/05/29 05:46:47;;;;;;;6.03;3.40;;;;;;;;;;5089576;28;20074;-67
2022/05/29 05:49:15;;;;;;;9.18;3.50;;;;;;;;;;5086340;28;20109;-67
2022/05/29 05:51:40;;;;;;;9.13;3.75;;;;;;;;;;5080898;28;20039;-66
2022/05/29 05:54:06;;;;;;;6.05;3.45;;;;;;;;;;5086347;28;20032;-67
2022/05/29 05:56:31;;;;;;;5.30;3.05;;;;;;;;;;5083834;28;20051;-66
2022/05/29 05:58:57;;;;;;;5.90;3.15;;;;;;;;;;5079417;28;20509;-66
2022/05/29 06:01:22;;;;;;;8.68;3.60;;;;;;;;;;5083907;28;20145;-67
2022/05/29 06:03:48;;;;;;;7.53;3.42;;;;;;;;;;5080587;28;20044;-67
2022/05/29 06:06:13;;;;;;;10.77;3.78;;;;;;;;;;5085446;28;20031;-66
2022/05/29 06:08:38;;;;;;;9.93;2.90;;;;;;;;;;5083976;28;20020;-67
2022/05/29 06:11:04;;;;;;;4.35;2.47;;;;;;;;;;5081534;28;20178;-66
2022/05/29 06:13:29;;;;;;;9.10;3.70;;;;;;;;;;5080822;28;20046;-66
2022/05/29 06:15:59;;;;;;;7.90;3.10;;;;;;;;;;5080333;28;20101;-67
2022/05/29 06:18:24;;;;;;;6.38;2.67;;;;;;;;;;5084152;28;20038;-67
2022/05/29 06:20:56;;;;;;;8.25;2.95;;;;;;;;;;5080312;28;20044;-66
2022/05/29 06:23:22;;;;;;;11.70;3.05;;;;;;;;;;5078740;28;20056;-65
2022/05/29 06:25:47;;;;;;;5.05;2.83;;;;;;;;;;5081760;28;20129;-68
2022/05/29 06:28:12;;;;;;;5.20;2.72;;;;;;;;;;5083130;28;20044;-66
2022/05/29 06:30:38;;;;;;;5.28;2.80;;;;;;;;;;5084653;28;20504;-66
2022/05/29 06:33:03;;;;;;;5.22;2.60;;;;;;;;;;5085870;28;20400;-66
2022/05/29 06:35:28;;;;;;;5.30;2.88;;;;;;;;;;5078712;28;20055;-66
2022/05/29 06:37:54;;;;;;;4.85;1.98;;;;;;;;;;5086365;28;20036;-66
2022/05/29 06:40:19;;;;;;;4.85;2.42;;;;;;;;;;5086034;28;20066;-66
2022/05/29 06:42:44;;;;;;;8.48;3.97;;;;;;;;;;5081794;28;20446;-66
2022/05/29 06:45:11;;;;;;;4.30;2.08;;;;;;;;;;5077654;28;20023;-65
2022/05/29 06:47:38;;;;;;;6.38;2.30;;;;;;;;;;5088514;28;20400;-66
2022/05/29 06:50:04;;;;;;;5.65;1.70;;;;;;;;;;5105950;28;20032;-65
2022/05/29 06:52:31;;;;;;;6.78;2.17;;;;;;;;;;5073950;28;20519;-65
2022/05/29 06:54:57;;;;;;;4.05;1.60;;;;;;;;;;5084420;28;20539;-65
2022/05/29 06:57:41;;;;;;;4.13;1.95;;;;;;;;;;5086528;28;20528;-66
2022/05/29 07:08:01;;;;;;;4.55;2.10;;;;;;;;;;5078276;28;20123;-66
2022/05/29 07:10:29;;;;;;;4.28;2.10;;;;;;;;;;5086008;28;20040;-66
2022/05/29 07:12:55;;;;;;;4.07;1.80;;;;;;;;;;5087020;28;20047;-65
2022/05/29 07:15:20;;;;;;;4.85;1.85;;;;;;;;;;5082960;28;20040;-66
2022/05/29 07:17:45;;;;;;;5.40;2.35;;;;;;;;;;5083310;28;20043;-65
2022/05/29 07:20:11;;;;;;;7.18;2.22;;;;;;;;;;5077214;28;20490;-66
2022/05/29 07:22:39;;;;;;;4.72;2.30;;;;;;;;;;5078091;28;20050;-66
2022/05/29 07:25:05;;;;;;;4.00;2.20;;;;;;;;;;5077156;28;20054;-66
2022/05/29 07:27:31;;;;;;;9.38;2.67;;;;;;;;;;5069536;28;20021;-65
2022/05/29 07:29:56;;;;;;;10.32;2.28;;;;;;;;;;5079929;28;20032;-66
2022/05/29 07:32:23;;;;;;;7.95;2.25;;;;;;;;;;5088585;28;20039;-66
2022/05/29 07:34:49;;;;;;;5.10;1.90;;;;;;;;;;5082939;28;20393;-66
2022/05/29 07:37:16;;;;;;;6.53;2.10;;;;;;;;;;5083816;28;20536;-66
2022/05/29 07:39:50;;;;;;;3.38;2.15;;;;;;;;;;5084058;28;20567;-66
2022/05/29 07:44:59;;;;;;;3.90;1.70;;;;;;;;;;5082953;28;20026;-65
2022/05/29 07:47:27;;;;;;;5.93;1.90;;;;;;;;;;5075889;28;20027;-66
2022/05/29 07:49:53;;;;;;;3.72;1.65;;;;;;;;;;5079229;28;20183;-66
2022/05/29 07:52:18;;;;;;;7.55;2.05;;;;;;;;;;5081422;28;20617;-66
2022/05/29 07:54:44;;;;;;;4.53;1.90;;;;;;;;;;5083796;28;20519;-65
2022/05/29 07:57:09;;;;;;;4.40;2.00;;;;;;;;;;5076945;28;20035;-65
2022/05/29 07:59:35;;;;;;;4.85;2.22;;;;;;;;;;5083254;28;20102;-65
2022/05/29 08:02:00;;;;;;;3.72;1.85;;;;;;;;;;5081485;28;20084;-65
2022/05/29 08:04:27;;;;;;;7.20;1.98;;;;;;;;;;5078755;28;20165;-65
2022/05/29 08:06:52;;;;;;;4.28;1.60;;;;;;;;;;5080232;28;20032;-66
2022/05/29 08:09:19;;;;;;;5.50;1.92;;;;;;;;;;5081035;28;21276;-65
2022/05/29 08:11:44;;;;;;;4.90;1.77;;;;;;;;;;5080421;28;20069;-65
2022/05/29 08:14:09;;;;;;;6.03;1.67;;;;;;;;;;5083091;28;20048;-65
2022/05/29 08:16:36;;;;;;;4.60;1.70;;;;;;;;;;5083843;28;20040;-65
2022/05/29 08:19:02;;;;;;;2.85;1.50;;;;;;;;;;5072523;28;20031;-66
2022/05/29 08:21:27;;;;;;;3.70;1.63;;;;;;;;;;5079026;28;20040;-66
2022/05/29 08:32:04;;;;;;;;;;;;;;;;;;5079158;28;20031;-65
2022/05/29 08:34:29;;;;;;;5.38;1.77;;;;;;;;;;5079547;28;19916;-66
2022/05/29 08:36:55;;;;;;;9.60;2.00;;;;;;;;;;5075336;28;20512;-65
2022/05/29 08:39:22;;;;;;;3.58;1.70;;;;;;;;;;5079931;28;20128;-66
2022/05/29 08:41:51;;;;;;;3.03;1.65;;;;;;;;;;5086539;28;20039;-65
2022/05/29 08:44:23;;;;;;;3.75;1.55;;;;;;;;;;5084913;28;20517;-65
2022/05/29 08:46:52;;;;;;;3.35;1.50;;;;;;;;;;5081572;28;20043;-66
2022/05/29 08:49:25;;;;;;;4.57;1.67;;;;;;;;;;5081839;28;20174;-64
2022/05/29 08:52:15;;;;;;;5.10;2.08;;;;;;;;;;5083948;28;20021;-66
2022/05/29 08:54:49;;;;;;;6.85;2.17;;;;;;;;;;5087526;28;20413;-66
2022/05/29 08:57:21;;;;;;;6.97;2.03;;;;;;;;;;5084118;28;20028;-66
2022/05/29 08:59:49;;;;;;;5.78;1.90;;;;;;;;;;5077121;28;20032;-65
2022/05/29 09:02:36;;;;;;;7.00;1.92;;;;;;;;;;5071609;28;20075;-66
2022/05/29 09:05:11;;;;;;;4.95;1.98;;;;;;;;;;5073393;28;20509;-66
2022/05/29 09:07:39;;;;;;;3.67;1.50;;;;;;;;;;5070555;28;20039;-65
2022/05/29 09:10:12;;;;;;;4.95;1.90;;;;;;;;;;5070715;28;20033;-66
2022/05/29 09:12:40;;;;;;;7.10;1.98;;;;;;;;;;5072341;28;20032;-65
2022/05/29 09:15:14;;;;;;;4.63;2.08;;;;;;;;;;5079703;28;20028;-65
2022/05/29 09:17:52;;;;;;;6.53;2.25;;;;;;;;;;5079587;28;20057;-66
2022/05/29 09:20:32;;;;;;;6.57;2.15;;;;;;;;;;5074980;28;20860;-66
2022/05/29 09:23:00;;;;;;;6.18;2.28;;;;;;;;;;5081029;28;20043;-65
2022/05/29 09:25:38;;;;;;;4.85;2.55;;;;;;;;;;5074756;28;20040;-65
2022/05/29 09:28:14;;;;;;;3.55;2.20;;;;;;;;;;5081343;28;20531;-65
2022/05/29 09:30:40;;;;;;;4.57;2.00;;;;;;;;;;5080007;28;20542;-66
2022/05/29 09:33:17;;;;;;;6.60;2.40;;;;;;;;;;5081564;28;20051;-66
2022/05/29 09:35:50;;;;;;;5.68;2.53;;;;;;;;;;5081657;28;20028;-66
2022/05/29 09:38:28;;;;;;;3.33;2.22;;;;;;;;;;5075959;28;20416;-65
2022/05/29 09:41:07;;;;;;;4.75;2.17;;;;;;;;;;5076438;28;20508;-66
2022/05/29 09:43:33;;;;;;;3.90;2.10;;;;;;;;;;5081645;28;20621;-66
2022/05/29 09:46:30;;;;;;;4.10;2.60;;;;;;;;;;5079496;28;20044;-66
2022/05/29 09:51:58;;;;;;;3.50;2.30;;;;;;;;;;5074076;28;20543;-66
2022/05/29 09:54:29;;;;;;;3.83;2.35;;;;;;;;;;5089353;28;20127;-66
2022/05/29 09:57:06;;;;;;;4.70;2.30;;;;;;;;;;5087644;28;20057;-66
2022/05/29 09:59:37;;;;;;;6.22;2.50;;;;;;;;;;5077013;28;20059;-65
2022/05/29 10:02:04;;;;;;;3.42;2.53;;;;;;;;;;5074634;28;20082;-65
2022/05/29 10:04:39;;;;;;;3.40;2.35;;;;;;;;;;5076738;28;20071;-66
2022/05/29 10:07:16;;;;;;;5.05;2.40;;;;;;;;;;5083577;28;20035;-66
2022/05/29 10:10:26;;;;;;;7.20;2.80;;;;;;;;;;5076919;28;20116;-66
2022/05/29 10:12:54;;;;;;;3.28;2.13;;;;;;;;;;5026438;28;20044;-66
2022/05/29 10:15:25;;;;;;;4.90;2.20;;;;;;;;;;5068243;28;20408;-66
2022/05/29 10:17:58;;;;;;;4.32;2.42;;;;;;;;;;5076775;28;20024;-66
2022/05/29 10:20:30;;;;;;;;;;;;;;;;;;5073421;28;20051;-66
2022/05/29 10:22:56;;;;;;;6.85;3.58;;;;;;;;;;5075285;28;19947;-66
2022/05/29 10:25:30;;;;;;;5.22;3.50;;;;;;;;;;5082789;28;20111;-66
2022/05/29 10:28:00;;;;;;;4.00;3.00;;;;;;;;;;5078614;28;20615;-65
2022/05/29 10:30:41;;;;;;;5.88;3.25;;;;;;;;;;5082716;28;20032;-66
2022/05/29 10:33:10;;;;;;;6.45;4.10;;;;;;;;;;5077366;28;20016;-66
2022/05/29 10:35:38;;;;;;;7.78;3.53;;;;;;;;;;5081078;28;20029;-66
2022/05/29 10:38:26;;;;;;;6.10;3.28;;;;;;;;;;5079826;28;20135;-66
2022/05/29 10:41:00;;;;;;;5.15;3.58;;;;;;;;;;5077853;28;20132;-66
2022/05/29 10:43:47;;;;;;;4.32;3.00;;;;;;;;;;5080324;28;20024;-66
2022/05/29 10:46:15;;;;;;;5.22;3.03;;;;;;;;;;5081801;28;20032;-66
2022/05/29 10:48:46;;;;;;;7.78;2.88;;;;;;;;;;5081395;28;20075;-66
2022/05/29 10:51:19;;;;;;;3.13;2.20;;;;;;;;;;5080797;28;20043;-66
2022/05/29 10:54:07;;;;;;;4.32;1.95;;;;;;;;;;5076756;28;20535;-66
2022/05/29 10:56:41;;;;;;;3.83;2.22;;;;;;;;;;5076049;28;20040;-66
2022/05/29 10:59:47;;;;;;;5.90;2.17;;;;;;;;;;5072584;28;20032;-66
2022/05/29 11:05:23;;;;;;;4.53;2.80;;;;;;;;;;5085203;28;20787;-65
2022/05/29 11:08:11;;;;;;;4.60;3.10;;;;;;;;;;5084121;28;20184;-65
2022/05/29 11:10:56;;;;;;;4.80;3.25;;;;;;;;;;5083482;28;20028;-66
2022/05/29 11:13:24;;;;;;;8.05;3.80;;;;;;;;;;5081819;28;20494;-66
2022/05/29 11:16:28;;;;;;;5.63;3.78;;;;;;;;;;5081304;28;20463;-66
2022/05/29 11:19:21;;;;;;;4.97;3.50;;;;;;;;;;5086448;28;20047;-66
2022/05/29 11:22:10;;;;;;;5.80;3.78;;;;;;;;;;5077955;28;20536;-66
2022/05/29 11:24:36;;;;;;;4.38;3.90;;;;;;;;;;5080585;28;20046;-66
2022/05/29 11:27:16;;;;;;;4.75;3.38;;;;;;;;;;5085796;28;20020;-66
2022/05/29 11:29:50;;;;;;;4.03;2.60;;;;;;;;;;5082962;28;20397;-66
2022/05/29 11:32:31;;;;;;;2.35;1.90;;;;;;;;;;5080919;28;20028;-66
2022/05/29 11:35:06;;;;;;;3.95;1.40;;;;;;;;;;5080754;28;20521;-66
2022/05/29 11:38:06;;;;;;;4.05;2.08;;;;;;;;;;5081241;28;20047;-66
2022/05/29 11:40:35;;;;;;;3.22;1.80;;;;;;;;;;5076034;28;20028;-66
2022/05/29 11:43:16;;;;;;;2.15;1.85;;;;;;;;;;5082482;28;20043;-66
2022/05/29 11:51:39;;;;;;;1.35;1.20;;;;;;;;;;5079448;28;20470;-66
2022/05/29 11:54:11;;;;;;;2.17;1.20;;;;;;;;;;5085655;28;20020;-66
2022/05/29 11:56:47;;;;;;;1.60;1.05;;;;;;;;;;5078581;28;20024;-66
2022/05/29 11:59:47;;;;;;;1.98;1.10;;;;;;;;;;5085168;28;20048;-66
2022/05/29 12:02:50;;;;;;;1.00;0.90;;;;;;;;;;5077510;28;20472;-66
2022/05/29 12:05:29;;;;;;;3.40;1.23;;;;;;;;;;5083523;28;20028;-66
2022/05/29 12:08:18;;;;;;;3.25;2.20;;;;;;;;;;5079375;28;20035;-66
2022/05/29 12:10:52;;;;;;;2.20;1.90;;;;;;;;;;5081725;28;20043;-66
2022/05/29 12:13:21;;;;;;;2.70;2.00;;;;;;;;;;5085720;28;20032;-66
2022/05/29 12:15:57;;;;;;;3.85;2.08;;;;;;;;;;5087407;28;20081;-66
2022/05/29 12:18:26;;;;;;;2.90;2.08;;;;;;;;;;5081420;28;20029;-66
2022/05/29 12:20:58;;;;;;;3.13;1.55;;;;;;;;;;5079031;28;20032;-66
2022/05/29 12:23:24;;;;;;;3.07;1.50;;;;;;;;;;5069587;28;20417;-67
2022/05/29 12:25:58;;;;;;;2.55;1.60;;;;;;;;;;5082533;28;20059;-66
2022/05/29 12:28:34;;;;;;;2.58;1.75;;;;;;;;;;5071573;28;20584;-66
2022/05/29 12:31:01;;;;;;;1.60;1.42;;;;;;;;;;5076108;28;20398;-66
2022/05/29 12:33:27;;;;;;;3.17;1.70;;;;;;;;;;5078584;28;20120;-65
2022/05/29 12:35:59;;;;;;;4.63;2.00;;;;;;;;;;5079980;28;20154;-66
2022/05/29 12:38:40;;;;;;;2.60;1.60;;;;;;;;;;5073557;28;20098;-66
2022/05/29 12:41:29;;;;;;;2.38;1.67;;;;;;;;;;5081093;28;20056;-66
2022/05/29 12:44:23;;;;;;;2.30;1.65;;;;;;;;;;5079171;28;20045;-68
2022/05/29 12:47:07;;;;;;;2.58;1.73;;;;;;;;;;5076223;28;20055;-67
2022/05/29 12:49:49;;;;;;;3.38;2.00;;;;;;;;;;5077123;28;20519;-67
2022/05/29 12:52:20;;;;;;;2.90;2.03;;;;;;;;;;5083945;28;20075;-68
2022/05/29 12:55:23;;;;;;;2.30;1.65;;;;;;;;;;5074582;28;20028;-65
2022/05/29 12:58:17;;;;;;;2.97;1.83;;;;;;;;;;5070365;28;20127;-66
2022/05/29 13:01:20;;;;;;;2.38;1.90;;;;;;;;;;5070515;28;20033;-65
2022/05/29 13:03:58;;;;;;;3.13;1.90;;;;;;;;;;5080881;28;20093;-65
2022/05/29 13:06:54;;;;;;;2.65;1.65;;;;;;;;;;5076705;28;20090;-65
2022/05/29 13:09:44;;;;;;;2.15;1.30;;;;;;;;;;5083350;28;20051;-66
2022/05/29 13:12:18;;;;;;;2.65;1.90;;;;;;;;;;5086379;28;20031;-66
2022/05/29 13:14:51;;;;;;;2.08;1.60;;;;;;;;;;5086763;28;20599;-66
2022/05/29 13:17:28;;;;;;;;;;;;;;;;;;5079351;28;20040;-66
2022/05/29 13:19:56;;;;;;;6.00;1.77;;;;;;;;;;5084438;28;19920;-66
2022/05/29 13:22:42;;;;;;;2.13;1.60;;;;;;;;;;5086960;28;20036;-66
2022/05/29 13:25:08;;;;;;;2.85;1.67;;;;;;;;;;5071210;28;20043;-66
2022/05/29 13:27:34;;;;;;;2.13;1.50;;;;;;;;;;5082252;28;20032;-66
2022/05/29 13:30:02;;;;;;;1.33;1.20;;;;;;;;;;5079199;28;20035;-66
2022/05/29 13:32:32;;;;;;;1.58;1.20;;;;;;;;;;5083636;28;20024;-67
2022/05/29 13:35:03;;;;;;;4.30;1.70;;;;;;;;;;5084209;28;20115;-66
2022/05/29 13:37:31;;;;;;;2.40;1.70;;;;;;;;;;5082929;28;20032;-66
2022/05/29 13:40:00;;;;;;;2.67;1.52;;;;;;;;;;5084945;28;20049;-66
2022/05/29 13:42:30;;;;;;;2.25;1.40;;;;;;;;;;5084936;28;20046;-67
2022/05/29 13:44:55;;;;;;;2.15;1.58;;;;;;;;;;5077497;28;20024;-67
2022/05/29 13:47:24;;;;;;;1.63;1.52;;;;;;;;;;5084361;28;20114;-67
2022/05/29 13:49:57;;;;;;;1.60;1.50;;;;;;;;;;5091778;28;20146;-66
2022/05/29 13:52:30;;;;;;;2.30;1.70;;;;;;;;;;5087603;28;20611;-67
2022/05/29 13:55:11;;;;;;;3.78;1.80;;;;;;;;;;5086651;28;20062;-66
2022/05/29 14:06:35;;;;;;;2.88;2.20;;;;;;;;;;5085761;28;20056;-67
2022/05/29 14:09:27;;;;;;;2.60;2.25;;;;;;;;;;5081806;28;20069;-67
2022/05/29 14:11:58;;;;;;;2.58;2.10;;;;;;;;;;5082762;28;20020;-67
2022/05/29 14:14:30;;;;;;;3.13;2.10;;;;;;;;;;5089732;28;20031;-67
2022/05/29 14:17:08;;;;;;;4.85;2.00;;;;;;;;;;5072314;28;20036;-67
2022/05/29 14:19:55;;;;;;;5.05;2.72;;;;;;;;;;5077901;28;20108;-66
2022/05/29 14:22:51;;;;;;;3.22;2.30;;;;;;;;;;5081045;28;20159;-67
2022/05/29 14:25:26;;;;;;;4.03;2.80;;;;;;;;;;5069054;28;20040;-68
2022/05/29 14:28:05;;;;;;;3.28;2.28;;;;;;;;;;5083014;28;20075;-67
2022/05/29 14:30:54;;;;;;;3.28;2.10;;;;;;;;;;5075390;28;20508;-67
2022/05/29 14:33:39;;;;;;;3.97;2.00;;;;;;;;;;5090010;28;20455;-67
2022/05/29 14:36:24;;;;;;;3.28;2.10;;;;;;;;;;5075774;28;20546;-65
2022/05/29 14:39:14;;;;;;;2.83;2.10;;;;;;;;;;5079193;28;20035;-66
2022/05/29 14:41:45;;;;;;;3.55;2.45;;;;;;;;;;5081786;28;20044;-67
2022/05/29 14:44:13;;;;;;;4.03;2.05;;;;;;;;;;5094439;28;20570;-67
2022/05/29 14:49:43;;;;;;;3.17;2.00;;;;;;;;;;5085943;28;20047;-67
2022/05/29 14:52:18;;;;;;;5.45;2.08;;;;;;;;;;5085979;28;20032;-66
2022/05/29 14:54:53;;;;;;;3.42;1.83;;;;;;;;;;5077467;28;20028;-65
2022/05/29 14:57:29;;;;;;;3.03;1.55;;;;;;;;;;5082197;28;20016;-65
2022/05/29 14:59:55;;;;;;;3.17;1.50;;;;;;;;;;5086219;28;20111;-66
2022/05/29 15:02:35;;;;;;;2.28;1.70;;;;;;;;;;5081725;28;20028;-66
2022/05/29 15:05:05;;;;;;;2.78;1.95;;;;;;;;;;5079791;28;20036;-66
2022/05/29 15:10:32;;;;;;;3.97;1.58;;;;;;;;;;5084576;28;20048;-65
2022/05/29 15:13:06;;;;;;;2.35;1.48;;;;;;;;;;5067426;28;20131;-65
2022/05/29 15:15:34;;;;;;;3.72;1.80;;;;;;;;;;5067373;28;20430;-65
2022/05/29 15:18:10;;;;;;;7.03;1.58;;;;;;;;;;5082845;28;20031;-66
2022/05/29 15:26:24;;;;;;;4.35;1.90;;;;;;;;;;5084370;28;20051;-66
2022/05/29 15:28:52;;;;;;;3.97;1.85;;;;;;;;;;5083815;28;20062;-66
2022/05/29 15:31:32;;;;;;;2.90;1.83;;;;;;;;;;5081155;28;20039;-66
2022/05/29 15:34:07;;;;;;;2.35;1.80;;;;;;;;;;5082223;28;20467;-66
2022/05/29 15:36:44;;;;;;;3.20;2.08;;;;;;;;;;5078611;28;20051;-68
2022/05/29 15:39:22;;;;;;;3.20;2.00;;;;;;;;;;5079172;28;20033;-68
2022/05/29 15:42:02;;;;;;;3.85;2.05;;;;;;;;;;5078681;28;20029;-67
2022/05/29 15:44:57;;;;;;;2.17;1.67;;;;;;;;;;5074069;28;20048;-66
2022/05/29 15:47:42;;;;;;;2.97;1.70;;;;;;;;;;5064359;28;20044;-67
2022/05/29 15:50:31;;;;;;;2.65;1.40;;;;;;;;;;5080785;28;20119;-68
2022/05/29 15:53:18;;;;;;;3.13;1.70;;;;;;;;;;5085924;28;20032;-66
2022/05/29 15:56:04;;;;;;;4.18;2.38;;;;;;;;;;5083398;28;20432;-65
2022/05/29 15:58:41;;;;;;;2.38;1.60;;;;;;;;;;5084106;28;20063;-66
2022/05/29 16:01:10;;;;;;;3.67;1.50;;;;;;;;;;5075042;28;20089;-65
2022/05/29 16:03:37;;;;;;;2.88;2.03;;;;;;;;;;5075301;28;20044;-66
2022/05/29 16:06:22;;;;;;;4.15;1.70;;;;;;;;;;5081769;28;20570;-66
2022/05/29 16:08:51;;;;;;;3.05;1.48;;;;;;;;;;5077487;28;20111;-66
2022/05/29 16:11:37;;;;;;;1.45;1.05;;;;;;;;;;5084658;28;20056;-65
2022/05/29 16:14:04;;;;;;;2.83;1.33;;;;;;;;;;5075465;28;20512;-65